Florence, Massachusetts
Current Conditions -  °F | °C
As of 8:58 AM on Thursday 23 Oct 2014 (Local Time) from KCEF Reporting Station
Moderate Rain Moderate Rain  
Wind Chill: 42°   Ceiling: 1000
Heat Index: 49°   Visibility: 5mi
Dew Point: 47°   Wind: 18mph
Humidity: 93%   Direction: 10°N
Pressure: 29.69"   Gusts: NA
Location:  42.34°N, 72.67°W
Report Text: KCEF 231258Z 01016KT 5SM RA BR BKN010 OVC055 09/08 A2969 RMK AO2A PK WND 03026/42 SLP061 P0016 T00920082
Loading
Personal Weather Stations






























Interactive Weather Map
Tropical Storm Tracking
New forecast layout! Learn more

10-Day Weather Forecast

Advertisements
Track Severe Weather on mobile